createdAt,value
2022-10-31T00:00:12.692Z,12.57
2022-10-31T00:02:46.141Z,12.53
2022-10-31T00:05:18.725Z,12.51
2022-10-31T00:07:54.111Z,12.48
2022-10-31T00:10:26.637Z,12.44
2022-10-31T00:12:59.432Z,12.39
2022-10-31T00:15:35.324Z,12.41
2022-10-31T00:18:09.887Z,12.36
2022-10-31T00:20:42.475Z,12.35
2022-10-31T00:23:15.084Z,12.31
2022-10-31T00:25:47.709Z,12.27
2022-10-31T00:28:20.463Z,12.26
2022-10-31T00:30:53.023Z,12.22
2022-10-31T00:33:25.583Z,12.17
2022-10-31T00:35:58.244Z,12.11
2022-10-31T00:38:31.241Z,12.11
2022-10-31T00:41:03.960Z,12.08
2022-10-31T00:43:36.574Z,12.06
2022-10-31T00:46:09.657Z,12.05
2022-10-31T00:48:43.143Z,12.02
2022-10-31T00:51:15.682Z,12.02
2022-10-31T00:53:48.293Z,12.03
2022-10-31T00:56:20.926Z,12.00
2022-10-31T00:58:53.449Z,11.99
2022-10-31T01:01:26.116Z,11.93
2022-10-31T01:03:58.901Z,11.96
2022-10-31T01:06:31.444Z,11.94
2022-10-31T01:09:04.100Z,11.94
2022-10-31T01:11:36.636Z,11.93
2022-10-31T01:14:10.290Z,11.91
2022-10-31T01:16:42.858Z,11.89
2022-10-31T01:19:15.407Z,11.84
2022-10-31T01:21:47.919Z,11.86
2022-10-31T01:24:20.429Z,11.83
2022-10-31T01:26:52.944Z,11.79
2022-10-31T01:29:25.554Z,11.70
2022-10-31T01:31:58.062Z,11.70
2022-10-31T01:34:30.634Z,11.64
2022-10-31T01:37:03.165Z,11.62
2022-10-31T01:39:35.819Z,11.61
2022-10-31T01:42:18.653Z,11.59
2022-10-31T01:44:56.333Z,11.51
2022-10-31T01:47:44.319Z,11.52
2022-10-31T01:50:34.614Z,11.45
2022-10-31T01:53:11.941Z,11.39
2022-10-31T01:55:47.550Z,11.33
2022-10-31T01:58:25.841Z,11.30
2022-10-31T02:01:05.076Z,11.26
2022-10-31T02:03:40.695Z,11.22
2022-10-31T02:06:46.481Z,11.19
2022-10-31T02:09:24.348Z,11.17
2022-10-31T02:12:00.752Z,11.14
2022-10-31T02:14:34.427Z,11.11
2022-10-31T02:17:07.255Z,11.05
2022-10-31T02:20:11.235Z,10.96
2022-10-31T02:23:26.977Z,10.93
2022-10-31T02:26:33.519Z,10.88
2022-10-31T02:29:46.832Z,10.82
2022-10-31T02:32:49.892Z,10.75
2022-10-31T02:35:55.028Z,10.66
2022-10-31T02:38:54.010Z,10.59
2022-10-31T02:41:41.152Z,10.56
2022-10-31T02:44:46.383Z,10.51
2022-10-31T02:47:24.973Z,10.48
2022-10-31T02:50:30.860Z,10.35
2022-10-31T02:53:04.466Z,10.35
2022-10-31T02:55:36.816Z,10.32
2022-10-31T02:58:15.307Z,10.33
2022-10-31T03:01:16.236Z,10.51
2022-10-31T03:04:24.472Z,10.55
2022-10-31T03:07:16.550Z,10.55
2022-10-31T03:10:38.002Z,10.53
2022-10-31T03:13:25.591Z,10.54
2022-10-31T03:16:13.807Z,10.53
2022-10-31T03:19:07.982Z,10.54
2022-10-31T03:21:52.213Z,10.56
2022-10-31T03:24:32.942Z,10.52
2022-10-31T03:27:11.808Z,10.54
2022-10-31T03:29:47.810Z,10.48
2022-10-31T03:32:32.430Z,10.49
2022-10-31T03:35:08.573Z,10.45
2022-10-31T03:37:43.428Z,10.41
2022-10-31T03:40:21.676Z,10.36
2022-10-31T03:43:09.885Z,10.31
2022-10-31T03:45:47.616Z,10.29
2022-10-31T03:48:22.818Z,10.25
2022-10-31T03:51:27.546Z,10.19
2022-10-31T03:54:09.227Z,10.15
2022-10-31T03:56:54.296Z,10.12
2022-10-31T03:59:43.652Z,10.09
2022-10-31T04:02:22.290Z,10.10
2022-10-31T04:04:55.385Z,10.07
2022-10-31T04:07:39.416Z,10.11
2022-10-31T04:10:15.999Z,10.12
2022-10-31T04:12:58.878Z,10.13
2022-10-31T04:15:33.370Z,10.13
2022-10-31T04:18:07.194Z,10.10
2022-10-31T04:20:42.974Z,10.07
2022-10-31T04:23:23.267Z,10.12
2022-10-31T04:25:56.337Z,10.16
2022-10-31T04:28:28.909Z,10.18
2022-10-31T04:31:01.828Z,10.27
2022-10-31T04:33:34.305Z,10.31
2022-10-31T04:36:07.260Z,10.39
2022-10-31T04:38:39.789Z,10.44
2022-10-31T04:41:12.305Z,10.46
2022-10-31T04:43:44.878Z,10.49
2022-10-31T04:46:17.420Z,10.55
2022-10-31T04:48:50.243Z,10.58
2022-10-31T04:51:22.875Z,10.61
2022-10-31T04:53:55.338Z,10.60
2022-10-31T04:56:28.014Z,10.62
2022-10-31T04:59:00.570Z,10.60
2022-10-31T05:01:33.189Z,10.56
2022-10-31T05:04:05.747Z,10.52
2022-10-31T05:06:38.229Z,10.47
2022-10-31T05:09:10.727Z,10.47
2022-10-31T05:11:43.401Z,10.43
2022-10-31T05:14:15.876Z,10.39
2022-10-31T05:16:48.361Z,10.35
2022-10-31T05:19:20.859Z,10.30
2022-10-31T05:21:53.341Z,10.26
2022-10-31T05:24:25.808Z,10.19
2022-10-31T05:26:58.332Z,10.16
2022-10-31T05:29:34.266Z,10.13
2022-10-31T05:32:06.632Z,10.14
2022-10-31T05:34:39.133Z,10.12
2022-10-31T05:37:11.717Z,10.12
2022-10-31T05:39:44.383Z,10.11
2022-10-31T05:42:16.832Z,10.12
2022-10-31T05:44:49.297Z,10.10
2022-10-31T05:47:21.877Z,10.10
2022-10-31T05:49:54.352Z,10.08
2022-10-31T05:52:26.926Z,10.09
2022-10-31T05:54:59.471Z,10.07
2022-10-31T05:57:34.408Z,10.04
2022-10-31T06:00:07.734Z,10.02
2022-10-31T06:02:40.344Z,9.99
2022-10-31T06:05:14.313Z,9.95
2022-10-31T06:07:46.900Z,9.90
2022-10-31T06:10:21.801Z,9.86
2022-10-31T06:12:54.286Z,9.86
2022-10-31T06:15:26.960Z,9.86
2022-10-31T06:18:04.100Z,9.84
2022-10-31T06:20:37.179Z,9.81
2022-10-31T06:23:09.636Z,9.81
2022-10-31T06:25:42.111Z,9.78
2022-10-31T06:28:14.568Z,9.84
2022-10-31T06:30:47.056Z,9.89
2022-10-31T06:33:19.598Z,9.92
2022-10-31T06:35:52.075Z,9.93
2022-10-31T06:38:26.798Z,9.96
2022-10-31T06:41:05.037Z,9.94
2022-10-31T06:43:37.583Z,10.04
2022-10-31T06:46:10.051Z,10.08
2022-10-31T06:48:43.109Z,10.11
2022-10-31T06:51:15.681Z,10.14
2022-10-31T06:53:48.186Z,10.17
2022-10-31T06:56:20.729Z,10.17
2022-10-31T06:58:53.224Z,10.22
2022-10-31T07:01:25.892Z,10.30
2022-10-31T07:03:58.824Z,10.38
2022-10-31T07:06:31.343Z,10.44
2022-10-31T07:09:04.741Z,10.48
2022-10-31T07:11:37.215Z,10.55
2022-10-31T07:14:09.665Z,10.63
2022-10-31T07:16:42.170Z,10.72
2022-10-31T07:19:14.646Z,10.81
2022-10-31T07:21:47.147Z,10.86
2022-10-31T07:24:19.627Z,10.94
2022-10-31T07:26:52.135Z,11.00
2022-10-31T07:29:24.612Z,11.08
2022-10-31T07:31:57.155Z,11.15
2022-10-31T07:34:29.598Z,11.23
2022-10-31T07:37:02.138Z,11.31
2022-10-31T07:39:34.700Z,11.41
2022-10-31T07:42:07.149Z,11.45
2022-10-31T07:44:39.647Z,11.50
2022-10-31T07:47:12.104Z,11.55
2022-10-31T07:49:44.576Z,11.59
2022-10-31T07:52:17.061Z,11.61
2022-10-31T07:54:49.538Z,11.64
2022-10-31T07:57:25.086Z,11.71
2022-10-31T07:59:58.026Z,11.75
2022-10-31T08:02:30.541Z,11.80
2022-10-31T08:05:03.547Z,11.83
2022-10-31T08:07:38.588Z,11.91
2022-10-31T08:10:11.123Z,12.04
2022-10-31T08:12:43.665Z,12.16
2022-10-31T08:15:16.381Z,12.28
2022-10-31T08:17:48.914Z,12.35
2022-10-31T08:20:22.847Z,12.45
2022-10-31T08:23:00.309Z,12.60
2022-10-31T08:25:38.587Z,12.77
2022-10-31T08:28:12.542Z,12.92
2022-10-31T08:30:46.800Z,13.08
2022-10-31T08:33:20.604Z,13.24
2022-10-31T08:35:53.071Z,13.35
2022-10-31T08:38:25.644Z,13.50
2022-10-31T08:40:58.282Z,13.55
2022-10-31T08:43:30.750Z,13.56
2022-10-31T08:46:03.882Z,13.63
2022-10-31T08:48:36.449Z,13.74
2022-10-31T08:51:10.735Z,13.72
2022-10-31T08:53:43.321Z,13.82
2022-10-31T08:56:15.774Z,13.91
2022-10-31T08:58:48.312Z,13.95
2022-10-31T09:01:20.922Z,14.00
2022-10-31T09:03:53.472Z,14.08
2022-10-31T09:06:26.277Z,14.17
2022-10-31T09:08:58.824Z,14.27
2022-10-31T09:11:32.250Z,14.38
2022-10-31T09:14:04.823Z,14.42
2022-10-31T09:16:37.318Z,14.40
2022-10-31T09:19:11.598Z,14.60
2022-10-31T09:21:44.297Z,14.67
2022-10-31T09:24:16.785Z,14.78
2022-10-31T09:26:49.254Z,14.86
2022-10-31T09:29:21.721Z,14.91
2022-10-31T09:31:54.161Z,14.97
2022-10-31T09:34:27.137Z,15.02
2022-10-31T09:36:59.668Z,15.09
2022-10-31T09:39:32.145Z,15.16
2022-10-31T09:42:39.633Z,15.26
2022-10-31T09:45:31.766Z,15.25
2022-10-31T09:48:31.421Z,15.42
2022-10-31T09:51:18.287Z,15.43
2022-10-31T09:54:01.972Z,15.50
2022-10-31T09:56:35.879Z,15.51
2022-10-31T09:59:24.737Z,15.50
2022-10-31T10:02:08.190Z,15.49
2022-10-31T10:05:05.660Z,15.44
2022-10-31T10:08:04.894Z,15.49
2022-10-31T10:10:58.490Z,15.46
2022-10-31T10:13:59.885Z,15.73
2022-10-31T10:16:50.908Z,15.85
2022-10-31T10:19:43.309Z,16.05
2022-10-31T10:22:43.712Z,15.97
2022-10-31T10:25:22.121Z,16.12
2022-10-31T10:28:09.621Z,15.94
2022-10-31T10:30:49.701Z,16.12
2022-10-31T10:33:35.332Z,16.23
2022-10-31T10:36:23.759Z,16.30
2022-10-31T10:39:15.038Z,16.32
2022-10-31T10:42:10.916Z,16.50
2022-10-31T10:45:08.288Z,16.50
2022-10-31T10:47:55.260Z,16.69
2022-10-31T10:50:47.399Z,16.74
2022-10-31T10:53:36.619Z,16.84
2022-10-31T10:56:38.678Z,16.87
2022-10-31T10:59:17.620Z,16.97
2022-10-31T11:01:52.910Z,17.08
2022-10-31T11:04:36.969Z,17.03
2022-10-31T11:07:12.913Z,17.10
2022-10-31T11:09:45.514Z,17.00
2022-10-31T11:12:57.744Z,17.30
2022-10-31T11:15:38.267Z,17.42
2022-10-31T11:18:26.381Z,17.30
2022-10-31T11:21:04.375Z,17.37
2022-10-31T11:23:36.944Z,17.54
2022-10-31T11:26:22.116Z,17.62
2022-10-31T11:28:59.994Z,17.55
2022-10-31T11:31:36.112Z,17.62
2022-10-31T11:34:20.192Z,17.64
2022-10-31T11:36:52.894Z,17.63
2022-10-31T11:39:25.764Z,17.73
2022-10-31T11:42:08.574Z,17.73
2022-10-31T11:44:44.787Z,17.69
2022-10-31T11:47:27.040Z,17.67
2022-10-31T11:50:12.133Z,17.85
2022-10-31T11:52:45.049Z,17.97
2022-10-31T11:55:33.202Z,17.94
2022-10-31T11:58:20.548Z,18.03
2022-10-31T12:00:57.981Z,18.17
2022-10-31T12:03:37.628Z,18.20
2022-10-31T12:06:51.858Z,18.32
2022-10-31T12:09:31.189Z,18.52
2022-10-31T12:12:35.302Z,18.53
2022-10-31T12:15:32.060Z,18.31
2022-10-31T12:19:11.948Z,18.12
2022-10-31T12:21:44.999Z,18.18
2022-10-31T12:25:21.628Z,18.15
2022-10-31T12:28:18.125Z,18.19
2022-10-31T12:31:27.369Z,18.32
2022-10-31T12:34:48.701Z,18.40
2022-10-31T12:37:53.856Z,18.48
2022-10-31T12:41:01.562Z,18.57
2022-10-31T12:43:57.324Z,18.76
2022-10-31T12:47:38.202Z,18.94
2022-10-31T12:50:25.617Z,18.86
2022-10-31T12:53:21.835Z,19.06
2022-10-31T12:56:12.741Z,19.01
2022-10-31T12:58:53.726Z,19.10
2022-10-31T13:01:35.921Z,19.22
2022-10-31T13:04:29.224Z,19.02
2022-10-31T13:07:16.695Z,18.87
2022-10-31T13:10:03.352Z,19.01
2022-10-31T13:12:37.732Z,18.86
2022-10-31T13:15:28.597Z,18.66
2022-10-31T13:18:13.802Z,18.73
2022-10-31T13:20:54.733Z,18.82
2022-10-31T13:23:52.113Z,18.72
2022-10-31T13:26:51.672Z,18.60
2022-10-31T13:29:40.514Z,18.74
2022-10-31T13:32:14.022Z,18.57
2022-10-31T13:34:57.328Z,18.70
2022-10-31T13:37:45.417Z,18.72
2022-10-31T13:40:51.460Z,18.79
2022-10-31T13:44:04.483Z,18.83
2022-10-31T13:49:31.240Z,18.66
2022-10-31T13:52:16.723Z,18.72
2022-10-31T13:54:56.795Z,18.61
2022-10-31T13:57:40.051Z,18.68
2022-10-31T14:00:21.631Z,18.48
2022-10-31T14:02:58.333Z,18.47
2022-10-31T14:05:36.755Z,18.26
2022-10-31T14:08:24.392Z,17.99
2022-10-31T14:10:57.467Z,17.75
2022-10-31T14:13:42.302Z,17.71
2022-10-31T14:16:45.629Z,17.67
2022-10-31T14:19:22.204Z,17.75
2022-10-31T14:21:55.012Z,17.87
2022-10-31T14:24:27.418Z,17.78
2022-10-31T14:27:20.157Z,17.80
2022-10-31T14:29:52.754Z,17.70
2022-10-31T14:32:27.633Z,17.55
2022-10-31T14:35:01.185Z,17.51
2022-10-31T14:38:06.275Z,17.62
2022-10-31T14:41:19.584Z,17.49
2022-10-31T14:44:37.158Z,17.52
2022-10-31T14:47:54.310Z,17.62
2022-10-31T14:50:42.884Z,17.57
2022-10-31T14:53:57.157Z,17.65
2022-10-31T14:56:37.791Z,17.77
2022-10-31T14:59:16.850Z,17.74
2022-10-31T15:02:02.283Z,17.73
2022-10-31T15:04:37.438Z,17.86
2022-10-31T15:07:25.121Z,17.86
2022-10-31T15:10:30.567Z,17.63
2022-10-31T15:13:22.980Z,17.51
2022-10-31T15:15:56.843Z,17.41
2022-10-31T15:18:30.476Z,17.12
2022-10-31T15:21:05.399Z,17.15
2022-10-31T15:23:40.284Z,17.07
2022-10-31T15:26:21.106Z,17.01
2022-10-31T15:29:18.532Z,16.83
2022-10-31T15:32:31.789Z,16.80
2022-10-31T15:35:11.624Z,16.75
2022-10-31T15:37:44.146Z,16.63
2022-10-31T15:40:21.045Z,16.50
2022-10-31T15:43:07.731Z,16.38
2022-10-31T15:45:43.765Z,16.28
2022-10-31T15:48:24.204Z,16.26
2022-10-31T15:51:00.719Z,16.10
2022-10-31T15:53:44.441Z,16.00
2022-10-31T15:56:25.235Z,15.91
2022-10-31T15:59:02.060Z,15.87
2022-10-31T16:01:35.043Z,15.76
2022-10-31T16:04:13.828Z,15.65
2022-10-31T16:07:23.862Z,15.54
2022-10-31T16:10:04.855Z,15.41
2022-10-31T16:12:45.472Z,15.31
2022-10-31T16:15:21.943Z,15.19
2022-10-31T16:17:59.252Z,15.15
2022-10-31T16:20:40.515Z,15.07
2022-10-31T16:23:18.329Z,14.98
2022-10-31T16:25:52.529Z,14.93
2022-10-31T16:28:31.155Z,14.85
2022-10-31T16:31:15.720Z,14.73
2022-10-31T16:33:48.229Z,14.76
2022-10-31T16:36:36.420Z,14.74
2022-10-31T16:39:09.582Z,14.70
2022-10-31T16:41:45.276Z,14.63
2022-10-31T16:44:25.516Z,14.71
2022-10-31T16:47:14.669Z,14.73
2022-10-31T16:49:50.706Z,14.70
2022-10-31T16:52:23.245Z,14.59
2022-10-31T16:54:55.774Z,14.69
2022-10-31T16:57:32.280Z,14.78
2022-10-31T17:00:05.815Z,14.80
2022-10-31T17:02:39.026Z,14.87
2022-10-31T17:05:14.908Z,14.91
2022-10-31T17:07:51.589Z,14.98
2022-10-31T17:10:25.289Z,14.97
2022-10-31T17:12:59.925Z,14.96
2022-10-31T17:15:45.001Z,14.94
2022-10-31T17:18:22.782Z,14.91
2022-10-31T17:21:02.492Z,14.83
2022-10-31T17:23:35.830Z,14.83
2022-10-31T17:26:11.280Z,14.90
2022-10-31T17:28:46.436Z,14.86
2022-10-31T17:31:30.917Z,14.83
2022-10-31T17:34:05.201Z,14.74
2022-10-31T17:36:37.999Z,14.68
2022-10-31T17:39:11.018Z,14.66
2022-10-31T17:41:43.572Z,14.62
2022-10-31T17:44:16.152Z,14.50
2022-10-31T17:46:48.647Z,14.47
2022-10-31T17:49:21.857Z,14.40
2022-10-31T17:51:54.454Z,14.43
2022-10-31T17:54:26.969Z,14.38
2022-10-31T17:56:59.462Z,14.43
2022-10-31T17:59:31.926Z,14.40
2022-10-31T18:02:08.893Z,14.36
2022-10-31T18:04:41.684Z,14.34
2022-10-31T18:07:19.087Z,14.18
2022-10-31T18:09:51.555Z,14.17
2022-10-31T18:12:24.276Z,14.16
2022-10-31T18:14:56.823Z,14.18
2022-10-31T18:17:29.840Z,14.13
2022-10-31T18:20:02.486Z,14.07
2022-10-31T18:22:34.988Z,14.07
2022-10-31T18:25:08.076Z,14.07
2022-10-31T18:27:40.578Z,14.05
2022-10-31T18:30:13.214Z,14.04
2022-10-31T18:32:50.233Z,13.98
2022-10-31T18:35:22.761Z,14.06
2022-10-31T18:37:56.921Z,14.08
2022-10-31T18:40:34.656Z,14.05
2022-10-31T18:43:07.268Z,14.03
2022-10-31T18:45:49.531Z,13.98
2022-10-31T18:48:25.017Z,13.96
2022-10-31T18:51:10.660Z,13.96
2022-10-31T18:53:43.167Z,13.96
2022-10-31T18:56:15.973Z,13.98
2022-10-31T18:58:48.814Z,13.88
2022-10-31T19:01:22.483Z,13.92
2022-10-31T19:03:57.836Z,13.89
2022-10-31T19:06:30.927Z,13.90
2022-10-31T19:09:11.244Z,13.92
2022-10-31T19:11:43.740Z,13.87
2022-10-31T19:14:16.445Z,13.87
2022-10-31T19:16:52.331Z,13.86
2022-10-31T19:19:25.286Z,13.85
2022-10-31T19:21:57.842Z,13.81
2022-10-31T19:24:32.677Z,13.80
2022-10-31T19:27:06.245Z,13.77
2022-10-31T19:29:39.914Z,13.77
2022-10-31T19:32:24.546Z,13.77
2022-10-31T19:35:02.883Z,13.74
2022-10-31T19:37:42.382Z,13.73
2022-10-31T19:40:14.961Z,13.74
2022-10-31T19:42:47.623Z,13.78
2022-10-31T19:45:20.276Z,13.77
2022-10-31T19:47:54.145Z,13.81
2022-10-31T19:50:29.806Z,13.87
2022-10-31T19:53:02.300Z,13.87
2022-10-31T19:55:35.004Z,13.85
2022-10-31T19:58:10.804Z,13.82
2022-10-31T20:00:45.628Z,13.81
2022-10-31T20:03:21.583Z,13.80
2022-10-31T20:05:57.989Z,13.79
2022-10-31T20:08:32.031Z,13.79
2022-10-31T20:11:06.624Z,13.72
2022-10-31T20:13:39.380Z,13.79
2022-10-31T20:16:14.710Z,13.78
2022-10-31T20:18:47.279Z,13.77
2022-10-31T20:21:26.502Z,13.81
2022-10-31T20:24:02.134Z,13.81
2022-10-31T20:26:35.822Z,13.83
2022-10-31T20:29:13.520Z,13.86
2022-10-31T20:31:48.515Z,13.82
2022-10-31T20:34:21.131Z,13.85
2022-10-31T20:36:53.834Z,13.75
2022-10-31T20:39:26.458Z,13.72
2022-10-31T20:41:59.007Z,13.77
2022-10-31T20:44:32.090Z,13.76
2022-10-31T20:47:06.771Z,13.72
2022-10-31T20:49:39.431Z,13.72
2022-10-31T20:52:12.179Z,13.66
2022-10-31T20:54:44.897Z,13.72
2022-10-31T20:57:17.555Z,13.67
2022-10-31T20:59:50.053Z,13.62
2022-10-31T21:02:22.629Z,13.61
2022-10-31T21:04:55.299Z,13.58
2022-10-31T21:07:31.556Z,13.61
2022-10-31T21:10:14.638Z,13.60
2022-10-31T21:12:47.189Z,13.62
2022-10-31T21:15:19.725Z,13.72
2022-10-31T21:17:52.255Z,13.82
2022-10-31T21:20:24.915Z,13.83
2022-10-31T21:22:57.472Z,13.92
2022-10-31T21:25:30.024Z,13.99
2022-10-31T21:28:03.044Z,14.02
2022-10-31T21:30:45.206Z,13.99
2022-10-31T21:33:19.012Z,14.11
2022-10-31T21:35:52.308Z,14.24
2022-10-31T21:38:24.897Z,14.25
2022-10-31T21:41:07.998Z,14.28
2022-10-31T21:43:44.260Z,14.36
2022-10-31T21:46:23.864Z,14.34
2022-10-31T21:48:57.338Z,14.33
2022-10-31T21:51:33.455Z,14.35
2022-10-31T21:54:25.089Z,14.41
2022-10-31T21:56:59.874Z,14.45
2022-10-31T21:59:32.369Z,14.49
2022-10-31T22:02:05.070Z,14.42
2022-10-31T22:04:37.829Z,14.47
2022-10-31T22:07:10.316Z,14.50
2022-10-31T22:09:47.188Z,14.46
2022-10-31T22:12:19.761Z,14.46
2022-10-31T22:14:52.410Z,14.51
2022-10-31T22:17:25.138Z,14.53
2022-10-31T22:19:57.683Z,14.54
2022-10-31T22:22:30.173Z,14.57
2022-10-31T22:25:02.725Z,14.48
2022-10-31T22:27:36.832Z,14.55
2022-10-31T22:30:10.566Z,14.53
2022-10-31T22:32:43.143Z,14.53
2022-10-31T22:35:15.739Z,14.48
2022-10-31T22:37:48.278Z,14.48
2022-10-31T22:40:20.873Z,14.50
2022-10-31T22:42:53.544Z,14.48
2022-10-31T22:45:26.128Z,14.54
2022-10-31T22:47:58.927Z,14.52
2022-10-31T22:50:32.712Z,14.55
2022-10-31T22:53:05.403Z,14.52
2022-10-31T22:55:38.816Z,14.64
2022-10-31T22:58:11.657Z,14.63
2022-10-31T23:00:44.185Z,14.65
2022-10-31T23:03:16.705Z,14.60
2022-10-31T23:06:01.711Z,14.55
2022-10-31T23:08:37.986Z,14.54
2022-10-31T23:11:27.550Z,14.50
2022-10-31T23:14:09.486Z,14.58
2022-10-31T23:16:53.152Z,14.60
2022-10-31T23:19:29.793Z,14.57
2022-10-31T23:22:04.427Z,14.68
2022-10-31T23:24:46.724Z,14.54
2022-10-31T23:27:24.640Z,14.65
2022-10-31T23:29:59.677Z,14.59
2022-10-31T23:32:37.057Z,14.70
2022-10-31T23:35:10.417Z,14.61
2022-10-31T23:37:42.944Z,14.74
2022-10-31T23:40:15.561Z,14.78
2022-10-31T23:42:48.162Z,14.87
2022-10-31T23:45:21.355Z,15.02
2022-10-31T23:47:54.004Z,15.06
2022-10-31T23:50:26.761Z,15.12
2022-10-31T23:52:59.333Z,15.22
2022-10-31T23:55:31.887Z,15.18
2022-10-31T23:58:04.629Z,15.34
